PWSweather.com
Personal Weather Stations
Station Observations
KIDNAMPA57
Canyon County Idaho, Nampa, ID 83687

Canyon County IdahoNampa, ID 83687

Lat: 43.587235, Lon: -116.49831979999999

Elevation: 2615

Station Type: Davis Vantage Pro 2

www.rockinglweather.com

High Low Average
Temperature 35.2°F1.8°C 19.6°F-6.9°C 26.7°F-2.9°C
Dew Point 26.1°F-3.3°C 13.0°F-10.6°C 18.3°F-7.6°C
Winds 14.0 mph 22.5 kmh Calm Calm 6.0 mph SE9.7 kmh SE
Wind Gusts 20.0 mph32.2 kmh 4.0 mph6.4 kmh 12.0 mph19.3 kmh
Humidity 92% 48% 72%
Pressure 30.34 in1027.4 mb 29.91 in1012.9 mb -
Precipitation 0.00 in0.0 mm - -
Hour Temp Dew Point Humidity Winds Wind Gusts Pressure Precip Precip Rate Daily Precip Total
12:00 AM 23.1°F-4.9°C 17.0°F-8.3°C 77% 5.0 mph SSE8.0 kmh SSE 8.0 mph12.9 kmh 30.34 in1027.4 mb 0.00 in0.0 mm 0.00 in0.0 mm 0.00 in0.0 mm
12:05 AM 23.0°F-5.0°C 16.9°F-8.4°C 77% 4.0 mph SE6.4 kmh SE 6.0 mph9.7 kmh 30.34 in1027.4 mb 0.00 in0.0 mm 0.00 in0.0 mm 0.00 in0.0 mm
12:10 AM 22.8°F-5.1°C 16.4°F-8.7°C 76% 4.0 mph S6.4 kmh S 8.0 mph12.9 kmh 30.34 in1027.4 mb 0.00 in0.0 mm 0.00 in0.0 mm 0.00 in0.0 mm
12:15 AM 22.7°F-5.2°C 16.3°F-8.7°C 76% 5.0 mph SE8.0 kmh SE 9.0 mph14.5 kmh 30.34 in1027.4 mb 0.00 in0.0 mm 0.00 in0.0 mm 0.00 in0.0 mm
12:20 AM 22.6°F-5.2°C 16.2°F-8.8°C 76% 4.0 mph SE6.4 kmh SE 10.0 mph16.1 kmh 30.34 in1027.4 mb 0.00 in0.0 mm 0.00 in0.0 mm 0.00 in0.0 mm
12:25 AM 22.5°F-5.3°C 15.8°F-9.0°C 75% 6.0 mph S9.7 kmh S 12.0 mph19.3 kmh 30.34 in1027.4 mb 0.00 in0.0 mm 0.00 in0.0 mm 0.00 in0.0 mm
12:30 AM 22.6°F-5.2°C 15.9°F-8.9°C 75% 5.0 mph SSE8.0 kmh SSE 12.0 mph19.3 kmh 30.34 in1027.4 mb 0.00 in0.0 mm 0.00 in0.0 mm 0.00 in0.0 mm
12:35 AM 22.5°F-5.3°C 15.5°F-9.2°C 74% 9.0 mph SSE14.5 kmh SSE 11.0 mph17.7 kmh 30.34 in1027.4 mb 0.00 in0.0 mm 0.00 in0.0 mm 0.00 in0.0 mm
12:40 AM 22.4°F-5.3°C 15.4°F-9.2°C 74% 2.0 mph S3.2 kmh S 13.0 mph20.9 kmh 30.33 in1027.1 mb 0.00 in0.0 mm 0.00 in0.0 mm 0.00 in0.0 mm
12:45 AM 22.3°F-5.4°C 15.3°F-9.3°C 74% 7.0 mph ESE11.3 kmh ESE 14.0 mph22.5 kmh 30.33 in1027.1 mb 0.00 in0.0 mm 0.00 in0.0 mm 0.00 in0.0 mm
12:50 AM 22.2°F-5.4°C 15.2°F-9.3°C 74% 7.0 mph S11.3 kmh S 10.0 mph16.1 kmh 30.33 in1027.1 mb 0.00 in0.0 mm 0.00 in0.0 mm 0.00 in0.0 mm
12:55 AM 22.1°F-5.5°C 15.1°F-9.4°C 74% 4.0 mph SSE6.4 kmh SSE 11.0 mph17.7 kmh 30.33 in1027.1 mb 0.00 in0.0 mm 0.00 in0.0 mm 0.00 in0.0 mm
01:00 AM 22.0°F-5.6°C 15.0°F-9.4°C 74% 7.0 mph SE11.3 kmh SE 11.0 mph17.7 kmh 30.33 in1027.1 mb 0.00 in0.0 mm 0.00 in0.0 mm 0.00 in0.0 mm
01:05 AM 21.9°F-5.6°C 14.9°F-9.5°C 74% 5.0 mph SE8.0 kmh SE 12.0 mph19.3 kmh 30.33 in1027.1 mb 0.00 in0.0 mm 0.00 in0.0 mm 0.00 in0.0 mm
01:10 AM 21.9°F-5.6°C 14.9°F-9.5°C 74% 8.0 mph SSE12.9 kmh SSE 12.0 mph19.3 kmh 30.33 in1027.1 mb 0.00 in0.0 mm 0.00 in0.0 mm 0.00 in0.0 mm
01:15 AM 21.8°F-5.7°C 14.8°F-9.6°C 74% 5.0 mph SE8.0 kmh SE 12.0 mph19.3 kmh 30.33 in1027.1 mb 0.00 in0.0 mm 0.00 in0.0 mm 0.00 in0.0 mm
01:20 AM 21.8°F-5.7°C 14.8°F-9.6°C 74% 10.0 mph SSE16.1 kmh SSE 10.0 mph16.1 kmh 30.33 in1027.1 mb 0.00 in0.0 mm 0.00 in0.0 mm 0.00 in0.0 mm
01:25 AM 21.7°F-5.7°C 14.7°F-9.6°C 74% 12.0 mph SSE19.3 kmh SSE 12.0 mph19.3 kmh 30.33 in1027.1 mb 0.00 in0.0 mm 0.00 in0.0 mm 0.00 in0.0 mm
01:30 AM 21.7°F-5.7°C 14.7°F-9.6°C 74% 7.0 mph SE11.3 kmh SE 14.0 mph22.5 kmh 30.33 in1027.1 mb 0.00 in0.0 mm 0.00 in0.0 mm 0.00 in0.0 mm
01:35 AM 21.6°F-5.8°C 14.6°F-9.7°C 74% 6.0 mph S9.7 kmh S 13.0 mph20.9 kmh 30.33 in1027.1 mb 0.00 in0.0 mm 0.00 in0.0 mm 0.00 in0.0 mm
01:40 AM 21.5°F-5.8°C 14.5°F-9.7°C 74% 3.0 mph SE4.8 kmh SE 13.0 mph20.9 kmh 30.32 in1026.8 mb 0.00 in0.0 mm 0.00 in0.0 mm 0.00 in0.0 mm
01:45 AM 21.5°F-5.8°C 14.5°F-9.7°C 74% 3.0 mph SE4.8 kmh SE 13.0 mph20.9 kmh 30.32 in1026.8 mb 0.00 in0.0 mm 0.00 in0.0 mm 0.00 in0.0 mm
01:50 AM 21.4°F-5.9°C 14.7°F-9.6°C 75% 7.0 mph SE11.3 kmh SE 8.0 mph12.9 kmh 30.32 in1026.8 mb 0.00 in0.0 mm 0.00 in0.0 mm 0.00 in0.0 mm
01:55 AM 21.3°F-5.9°C 14.6°F-9.7°C 75% 7.0 mph S11.3 kmh S 10.0 mph16.1 kmh 30.32 in1026.8 mb 0.00 in0.0 mm 0.00 in0.0 mm 0.00 in0.0 mm
02:00 AM 21.2°F-6.0°C 14.5°F-9.7°C 75% 5.0 mph S8.0 kmh S 12.0 mph19.3 kmh 30.32 in1026.8 mb 0.00 in0.0 mm 0.00 in0.0 mm 0.00 in0.0 mm
02:05 AM 21.2°F-6.0°C 14.5°F-9.7°C 75% 8.0 mph SSE12.9 kmh SSE 11.0 mph17.7 kmh 30.32 in1026.8 mb 0.00 in0.0 mm 0.00 in0.0 mm 0.00 in0.0 mm
02:10 AM 21.2°F-6.0°C 14.5°F-9.7°C 75% 4.0 mph SE6.4 kmh SE 11.0 mph17.7 kmh 30.31 in1026.4 mb 0.00 in0.0 mm 0.00 in0.0 mm 0.00 in0.0 mm
02:15 AM 21.1°F-6.1°C 14.4°F-9.8°C 75% 6.0 mph SE9.7 kmh SE 14.0 mph22.5 kmh 30.31 in1026.4 mb 0.00 in0.0 mm 0.00 in0.0 mm 0.00 in0.0 mm
02:20 AM 21.1°F-6.1°C 14.4°F-9.8°C 75% 3.0 mph SE4.8 kmh SE 10.0 mph16.1 kmh 30.31 in1026.4 mb 0.00 in0.0 mm 0.00 in0.0 mm 0.00 in0.0 mm
02:25 AM 21.0°F-6.1°C 14.3°F-9.8°C 75% 7.0 mph SE11.3 kmh SE 11.0 mph17.7 kmh 30.31 in1026.4 mb 0.00 in0.0 mm 0.00 in0.0 mm 0.00 in0.0 mm
02:30 AM 21.0°F-6.1°C 14.3°F-9.8°C 75% 3.0 mph SE4.8 kmh SE 11.0 mph17.7 kmh 30.31 in1026.4 mb 0.00 in0.0 mm 0.00 in0.0 mm 0.00 in0.0 mm
02:35 AM 20.9°F-6.2°C 14.5°F-9.7°C 76% 7.0 mph S11.3 kmh S 12.0 mph19.3 kmh 30.31 in1026.4 mb 0.00 in0.0 mm 0.00 in0.0 mm 0.00 in0.0 mm
02:40 AM 20.8°F-6.2°C 14.4°F-9.8°C 76% 7.0 mph S11.3 kmh S 14.0 mph22.5 kmh 30.31 in1026.4 mb 0.00 in0.0 mm 0.00 in0.0 mm 0.00 in0.0 mm
02:45 AM 20.9°F-6.2°C 14.5°F-9.7°C 76% 8.0 mph SE12.9 kmh SE 14.0 mph22.5 kmh 30.31 in1026.4 mb 0.00 in0.0 mm 0.00 in0.0 mm 0.00 in0.0 mm
02:50 AM 20.9°F-6.2°C 14.5°F-9.7°C 76% 4.0 mph SSE6.4 kmh SSE 11.0 mph17.7 kmh 30.31 in1026.4 mb 0.00 in0.0 mm 0.00 in0.0 mm 0.00 in0.0 mm
02:55 AM 21.0°F-6.1°C 14.6°F-9.7°C 76% 10.0 mph SE16.1 kmh SE 12.0 mph19.3 kmh 30.30 in1026.1 mb 0.00 in0.0 mm 0.00 in0.0 mm 0.00 in0.0 mm
03:00 AM 21.1°F-6.1°C 14.7°F-9.6°C 76% 8.0 mph S12.9 kmh S 12.0 mph19.3 kmh 30.30 in1026.1 mb 0.00 in0.0 mm 0.00 in0.0 mm 0.00 in0.0 mm
03:05 AM 21.1°F-6.1°C 14.4°F-9.8°C 75% 9.0 mph SE14.5 kmh SE 9.0 mph14.5 kmh 30.30 in1026.1 mb 0.00 in0.0 mm 0.00 in0.0 mm 0.00 in0.0 mm
03:10 AM 21.2°F-6.0°C 14.5°F-9.7°C 75% 5.0 mph SSE8.0 kmh SSE 9.0 mph14.5 kmh 30.30 in1026.1 mb 0.00 in0.0 mm 0.00 in0.0 mm 0.00 in0.0 mm
03:15 AM 21.2°F-6.0°C 14.5°F-9.7°C 75% 7.0 mph SE11.3 kmh SE 12.0 mph19.3 kmh 30.30 in1026.1 mb 0.00 in0.0 mm 0.00 in0.0 mm 0.00 in0.0 mm
03:20 AM 21.3°F-5.9°C 14.6°F-9.7°C 75% 7.0 mph S11.3 kmh S 14.0 mph22.5 kmh 30.30 in1026.1 mb 0.00 in0.0 mm 0.00 in0.0 mm 0.00 in0.0 mm
03:25 AM 21.2°F-6.0°C 14.5°F-9.7°C 75% 7.0 mph SE11.3 kmh SE 14.0 mph22.5 kmh 30.30 in1026.1 mb 0.00 in0.0 mm 0.00 in0.0 mm 0.00 in0.0 mm
03:30 AM 21.3°F-5.9°C 14.6°F-9.7°C 75% 7.0 mph S11.3 kmh S 14.0 mph22.5 kmh 30.30 in1026.1 mb 0.00 in0.0 mm 0.00 in0.0 mm 0.00 in0.0 mm
03:35 AM 21.3°F-5.9°C 14.6°F-9.7°C 75% 4.0 mph SE6.4 kmh SE 9.0 mph14.5 kmh 30.30 in1026.1 mb 0.00 in0.0 mm 0.00 in0.0 mm 0.00 in0.0 mm
03:40 AM 21.2°F-6.0°C 14.2°F-9.9°C 74% 3.0 mph SSE4.8 kmh SSE 9.0 mph14.5 kmh 30.29 in1025.7 mb 0.00 in0.0 mm 0.00 in0.0 mm 0.00 in0.0 mm
03:45 AM 21.2°F-6.0°C 14.2°F-9.9°C 74% 9.0 mph SSE14.5 kmh SSE 11.0 mph17.7 kmh 30.29 in1025.7 mb 0.00 in0.0 mm 0.00 in0.0 mm 0.00 in0.0 mm
03:50 AM 21.3°F-5.9°C 14.3°F-9.8°C 74% 7.0 mph S11.3 kmh S 10.0 mph16.1 kmh 30.29 in1025.7 mb 0.00 in0.0 mm 0.00 in0.0 mm 0.00 in0.0 mm
03:55 AM 21.2°F-6.0°C 13.9°F-10.1°C 73% 5.0 mph SE8.0 kmh SE 12.0 mph19.3 kmh 30.28 in1025.4 mb 0.00 in0.0 mm 0.00 in0.0 mm 0.00 in0.0 mm
04:00 AM 21.2°F-6.0°C 13.9°F-10.1°C 73% 5.0 mph SSE8.0 kmh SSE 12.0 mph19.3 kmh 30.28 in1025.4 mb 0.00 in0.0 mm 0.00 in0.0 mm 0.00 in0.0 mm
04:05 AM 21.2°F-6.0°C 13.9°F-10.1°C 73% 8.0 mph SSE12.9 kmh SSE 10.0 mph16.1 kmh 30.28 in1025.4 mb 0.00 in0.0 mm 0.00 in0.0 mm 0.00 in0.0 mm
04:10 AM 21.2°F-6.0°C 13.9°F-10.1°C 73% 8.0 mph SE12.9 kmh SE 10.0 mph16.1 kmh 30.28 in1025.4 mb 0.00 in0.0 mm 0.00 in0.0 mm 0.00 in0.0 mm
04:15 AM 21.0°F-6.1°C 13.7°F-10.2°C 73% 8.0 mph SE12.9 kmh SE 10.0 mph16.1 kmh 30.27 in1025.1 mb 0.00 in0.0 mm 0.00 in0.0 mm 0.00 in0.0 mm
04:20 AM 20.9°F-6.2°C 13.9°F-10.1°C 74% 2.0 mph S3.2 kmh S 9.0 mph14.5 kmh 30.27 in1025.1 mb 0.00 in0.0 mm 0.00 in0.0 mm 0.00 in0.0 mm
04:25 AM 20.9°F-6.2°C 13.9°F-10.1°C 74% 3.0 mph SE4.8 kmh SE 9.0 mph14.5 kmh 30.27 in1025.1 mb 0.00 in0.0 mm 0.00 in0.0 mm 0.00 in0.0 mm
04:30 AM 20.8°F-6.2°C 13.8°F-10.1°C 74% 6.0 mph SE9.7 kmh SE 9.0 mph14.5 kmh 30.27 in1025.1 mb 0.00 in0.0 mm 0.00 in0.0 mm 0.00 in0.0 mm
04:35 AM 20.8°F-6.2°C 13.8°F-10.1°C 74% 2.0 mph E3.2 kmh E 10.0 mph16.1 kmh 30.27 in1025.1 mb 0.00 in0.0 mm 0.00 in0.0 mm 0.00 in0.0 mm
04:40 AM 20.9°F-6.2°C 13.9°F-10.1°C 74% 6.0 mph SSE9.7 kmh SSE 13.0 mph20.9 kmh 30.27 in1025.1 mb 0.00 in0.0 mm 0.00 in0.0 mm 0.00 in0.0 mm
04:45 AM 21.0°F-6.1°C 14.0°F-10.0°C 74% 4.0 mph SSE6.4 kmh SSE 13.0 mph20.9 kmh 30.27 in1025.1 mb 0.00 in0.0 mm 0.00 in0.0 mm 0.00 in0.0 mm
04:50 AM 21.1°F-6.1°C 14.1°F-9.9°C 74% 5.0 mph SE8.0 kmh SE 13.0 mph20.9 kmh 30.27 in1025.1 mb 0.00 in0.0 mm 0.00 in0.0 mm 0.00 in0.0 mm
04:55 AM 21.0°F-6.1°C 14.0°F-10.0°C 74% 7.0 mph SSE11.3 kmh SSE 13.0 mph20.9 kmh 30.26 in1024.7 mb 0.00 in0.0 mm 0.00 in0.0 mm 0.00 in0.0 mm
05:00 AM 21.1°F-6.1°C 14.1°F-9.9°C 74% 13.0 mph SSE20.9 kmh SSE 13.0 mph20.9 kmh 30.26 in1024.7 mb 0.00 in0.0 mm 0.00 in0.0 mm 0.00 in0.0 mm
05:05 AM 21.1°F-6.1°C 13.8°F-10.1°C 73% 4.0 mph SE6.4 kmh SE 12.0 mph19.3 kmh 30.26 in1024.7 mb 0.00 in0.0 mm 0.00 in0.0 mm 0.00 in0.0 mm
05:10 AM 21.1°F-6.1°C 13.8°F-10.1°C 73% 12.0 mph SE19.3 kmh SE 12.0 mph19.3 kmh 30.26 in1024.7 mb 0.00 in0.0 mm 0.00 in0.0 mm 0.00 in0.0 mm
05:15 AM 21.1°F-6.1°C 13.8°F-10.1°C 73% 6.0 mph SE9.7 kmh SE 12.0 mph19.3 kmh 30.26 in1024.7 mb 0.00 in0.0 mm 0.00 in0.0 mm 0.00 in0.0 mm
05:20 AM 21.2°F-6.0°C 13.9°F-10.1°C 73% 9.0 mph SE14.5 kmh SE 10.0 mph16.1 kmh 30.26 in1024.7 mb 0.00 in0.0 mm 0.00 in0.0 mm 0.00 in0.0 mm
05:25 AM 21.2°F-6.0°C 13.9°F-10.1°C 73% 8.0 mph S12.9 kmh S 11.0 mph17.7 kmh 30.26 in1024.7 mb 0.00 in0.0 mm 0.00 in0.0 mm 0.00 in0.0 mm
05:30 AM 21.2°F-6.0°C 13.6°F-10.2°C 72% 4.0 mph SE6.4 kmh SE 13.0 mph20.9 kmh 30.26 in1024.7 mb 0.00 in0.0 mm 0.00 in0.0 mm 0.00 in0.0 mm
05:35 AM 21.2°F-6.0°C 13.6°F-10.2°C 72% 3.0 mph S4.8 kmh S 12.0 mph19.3 kmh 30.26 in1024.7 mb 0.00 in0.0 mm 0.00 in0.0 mm 0.00 in0.0 mm
05:40 AM 21.1°F-6.1°C 13.5°F-10.3°C 72% 7.0 mph SSE11.3 kmh SSE 13.0 mph20.9 kmh 30.26 in1024.7 mb 0.00 in0.0 mm 0.00 in0.0 mm 0.00 in0.0 mm
05:45 AM 21.0°F-6.1°C 13.4°F-10.3°C 72% 4.0 mph SE6.4 kmh SE 13.0 mph20.9 kmh 30.26 in1024.7 mb 0.00 in0.0 mm 0.00 in0.0 mm 0.00 in0.0 mm
05:50 AM 20.8°F-6.2°C 13.5°F-10.3°C 73% 4.0 mph SSE6.4 kmh SSE 10.0 mph16.1 kmh 30.26 in1024.7 mb 0.00 in0.0 mm 0.00 in0.0 mm 0.00 in0.0 mm
05:55 AM 20.7°F-6.3°C 13.4°F-10.3°C 73% 6.0 mph SSE9.7 kmh SSE 10.0 mph16.1 kmh 30.26 in1024.7 mb 0.00 in0.0 mm 0.00 in0.0 mm 0.00 in0.0 mm
06:00 AM 20.6°F-6.3°C 13.6°F-10.2°C 74% 2.0 mph SE3.2 kmh SE 12.0 mph19.3 kmh 30.25 in1024.4 mb 0.00 in0.0 mm 0.00 in0.0 mm 0.00 in0.0 mm
06:05 AM 20.4°F-6.4°C 13.5°F-10.3°C 74% 5.0 mph SE8.0 kmh SE 10.0 mph16.1 kmh 30.25 in1024.4 mb 0.00 in0.0 mm 0.00 in0.0 mm 0.00 in0.0 mm
06:10 AM 20.3°F-6.5°C 13.4°F-10.3°C 74% 7.0 mph SSE11.3 kmh SSE 10.0 mph16.1 kmh 30.25 in1024.4 mb 0.00 in0.0 mm 0.00 in0.0 mm 0.00 in0.0 mm
06:15 AM 20.3°F-6.5°C 13.7°F-10.2°C 75% 1.0 mph SE1.6 kmh SE 10.0 mph16.1 kmh 30.25 in1024.4 mb 0.00 in0.0 mm 0.00 in0.0 mm 0.00 in0.0 mm
06:20 AM 20.1°F-6.6°C 13.5°F-10.3°C 75% 4.0 mph SE6.4 kmh SE 5.0 mph8.0 kmh 30.25 in1024.4 mb 0.00 in0.0 mm 0.00 in0.0 mm 0.00 in0.0 mm
06:25 AM 19.9°F-6.7°C 13.3°F-10.4°C 75% 5.0 mph SE8.0 kmh SE 6.0 mph9.7 kmh 30.25 in1024.4 mb 0.00 in0.0 mm 0.00 in0.0 mm 0.00 in0.0 mm
06:30 AM 19.9°F-6.7°C 13.3°F-10.4°C 75% 5.0 mph SSE8.0 kmh SSE 8.0 mph12.9 kmh 30.24 in1024.0 mb 0.00 in0.0 mm 0.00 in0.0 mm 0.00 in0.0 mm
06:35 AM 19.9°F-6.7°C 13.3°F-10.4°C 75% 3.0 mph SE4.8 kmh SE 9.0 mph14.5 kmh 30.24 in1024.0 mb 0.00 in0.0 mm 0.00 in0.0 mm 0.00 in0.0 mm
06:40 AM 20.0°F-6.7°C 13.4°F-10.3°C 75% 3.0 mph SSE4.8 kmh SSE 9.0 mph14.5 kmh 30.24 in1024.0 mb 0.00 in0.0 mm 0.00 in0.0 mm 0.00 in0.0 mm
06:45 AM 20.0°F-6.7°C 13.4°F-10.3°C 75% 4.0 mph S6.4 kmh S 10.0 mph16.1 kmh 30.24 in1024.0 mb 0.00 in0.0 mm 0.00 in0.0 mm 0.00 in0.0 mm
06:50 AM 20.0°F-6.7°C 13.4°F-10.3°C 75% 7.0 mph SSE11.3 kmh SSE 7.0 mph11.3 kmh 30.24 in1024.0 mb 0.00 in0.0 mm 0.00 in0.0 mm 0.00 in0.0 mm
06:55 AM 19.9°F-6.7°C 13.3°F-10.4°C 75% 5.0 mph S8.0 kmh S 8.0 mph12.9 kmh 30.24 in1024.0 mb 0.00 in0.0 mm 0.00 in0.0 mm 0.00 in0.0 mm
07:00 AM 19.9°F-6.7°C 13.3°F-10.4°C 75% 2.0 mph SE3.2 kmh SE 8.0 mph12.9 kmh 30.24 in1024.0 mb 0.00 in0.0 mm 0.00 in0.0 mm 0.00 in0.0 mm
07:05 AM 19.7°F-6.8°C 13.1°F-10.5°C 75% 4.0 mph S6.4 kmh S 6.0 mph9.7 kmh 30.24 in1024.0 mb 0.00 in0.0 mm 0.00 in0.0 mm 0.00 in0.0 mm
07:10 AM 19.7°F-6.8°C 13.1°F-10.5°C 75% 4.0 mph S6.4 kmh S 7.0 mph11.3 kmh 30.23 in1023.7 mb 0.00 in0.0 mm 0.00 in0.0 mm 0.00 in0.0 mm
07:15 AM 19.6°F-6.9°C 13.0°F-10.6°C 75% 2.0 mph SSE3.2 kmh SSE 7.0 mph11.3 kmh 30.23 in1023.7 mb 0.00 in0.0 mm 0.00 in0.0 mm 0.00 in0.0 mm
07:20 AM 19.6°F-6.9°C 13.3°F-10.4°C 76% 4.0 mph S6.4 kmh S 6.0 mph9.7 kmh 30.23 in1023.7 mb 0.00 in0.0 mm 0.00 in0.0 mm 0.00 in0.0 mm
07:25 AM 19.6°F-6.9°C 13.3°F-10.4°C 76% 1.0 mph S1.6 kmh S 7.0 mph11.3 kmh 30.23 in1023.7 mb 0.00 in0.0 mm 0.00 in0.0 mm 0.00 in0.0 mm
07:30 AM 19.6°F-6.9°C 13.3°F-10.4°C 76% 4.0 mph SE6.4 kmh SE 9.0 mph14.5 kmh 30.23 in1023.7 mb 0.00 in0.0 mm 0.00 in0.0 mm 0.00 in0.0 mm
07:35 AM 19.6°F-6.9°C 13.0°F-10.6°C 75% 2.0 mph SSE3.2 kmh SSE 7.0 mph11.3 kmh 30.23 in1023.7 mb 0.00 in0.0 mm 0.00 in0.0 mm 0.00 in0.0 mm
07:40 AM 19.7°F-6.8°C 13.1°F-10.5°C 75% 3.0 mph SE4.8 kmh SE 7.0 mph11.3 kmh 30.23 in1023.7 mb 0.00 in0.0 mm 0.00 in0.0 mm 0.00 in0.0 mm
07:45 AM 19.8°F-6.8°C 13.2°F-10.4°C 75% 3.0 mph SE4.8 kmh SE 7.0 mph11.3 kmh 30.23 in1023.7 mb 0.00 in0.0 mm 0.00 in0.0 mm 0.00 in0.0 mm
07:50 AM 19.9°F-6.7°C 13.3°F-10.4°C 75% 3.0 mph SE4.8 kmh SE 6.0 mph9.7 kmh 30.23 in1023.7 mb 0.00 in0.0 mm 0.00 in0.0 mm 0.00 in0.0 mm
07:55 AM 19.8°F-6.8°C 13.2°F-10.4°C 75% 3.0 mph SE4.8 kmh SE 6.0 mph9.7 kmh 30.23 in1023.7 mb 0.00 in0.0 mm 0.00 in0.0 mm 0.00 in0.0 mm
08:00 AM 19.8°F-6.8°C 13.2°F-10.4°C 75% 1.0 mph SE1.6 kmh SE 6.0 mph9.7 kmh 30.23 in1023.7 mb 0.00 in0.0 mm 0.00 in0.0 mm 0.00 in0.0 mm
08:05 AM 19.8°F-6.8°C 13.2°F-10.4°C 75% 2.0 mph SE3.2 kmh SE 4.0 mph6.4 kmh 30.23 in1023.7 mb 0.00 in0.0 mm 0.00 in0.0 mm 0.00 in0.0 mm
08:10 AM 19.8°F-6.8°C 13.2°F-10.4°C 75% 3.0 mph SE4.8 kmh SE 5.0 mph8.0 kmh 30.23 in1023.7 mb 0.00 in0.0 mm 0.00 in0.0 mm 0.00 in0.0 mm
08:15 AM 19.8°F-6.8°C 13.2°F-10.4°C 75% 2.0 mph SSE3.2 kmh SSE 5.0 mph8.0 kmh 30.23 in1023.7 mb 0.00 in0.0 mm 0.00 in0.0 mm 0.00 in0.0 mm
08:20 AM 19.8°F-6.8°C 13.5°F-10.3°C 76% 2.0 mph SE3.2 kmh SE 4.0 mph6.4 kmh 30.23 in1023.7 mb 0.00 in0.0 mm 0.00 in0.0 mm 0.00 in0.0 mm
08:25 AM 19.9°F-6.7°C 13.6°F-10.2°C 76% 3.0 mph SE4.8 kmh SE 4.0 mph6.4 kmh 30.23 in1023.7 mb 0.00 in0.0 mm 0.00 in0.0 mm 0.00 in0.0 mm
08:30 AM 20.0°F-6.7°C 13.7°F-10.2°C 76% 2.0 mph SE3.2 kmh SE 5.0 mph8.0 kmh 30.23 in1023.7 mb 0.00 in0.0 mm 0.00 in0.0 mm 0.00 in0.0 mm
08:35 AM 20.2°F-6.6°C 13.9°F-10.1°C 76% 1.0 mph SE1.6 kmh SE 6.0 mph9.7 kmh 30.23 in1023.7 mb 0.00 in0.0 mm 0.00 in0.0 mm 0.00 in0.0 mm
08:40 AM 20.4°F-6.4°C 13.8°F-10.1°C 75% 3.0 mph SSE4.8 kmh SSE 7.0 mph11.3 kmh 30.23 in1023.7 mb 0.00 in0.0 mm 0.00 in0.0 mm 0.00 in0.0 mm
08:45 AM 20.6°F-6.3°C 14.0°F-10.0°C 75% 2.0 mph SE3.2 kmh SE 7.0 mph11.3 kmh 30.23 in1023.7 mb 0.00 in0.0 mm 0.00 in0.0 mm 0.00 in0.0 mm
08:50 AM 20.8°F-6.2°C 14.1°F-9.9°C 75% Calm Calm 6.0 mph9.7 kmh 30.22 in1023.4 mb 0.00 in0.0 mm 0.00 in0.0 mm 0.00 in0.0 mm
08:55 AM 21.0°F-6.1°C 14.3°F-9.8°C 75% 3.0 mph S4.8 kmh S 7.0 mph11.3 kmh 30.22 in1023.4 mb 0.00 in0.0 mm 0.00 in0.0 mm 0.00 in0.0 mm
09:00 AM 21.2°F-6.0°C 14.5°F-9.7°C 75% 5.0 mph SE8.0 kmh SE 8.0 mph12.9 kmh 30.22 in1023.4 mb 0.00 in0.0 mm 0.00 in0.0 mm 0.00 in0.0 mm
09:05 AM 21.6°F-5.8°C 14.9°F-9.5°C 75% 2.0 mph SE3.2 kmh SE 8.0 mph12.9 kmh 30.22 in1023.4 mb 0.00 in0.0 mm 0.00 in0.0 mm 0.00 in0.0 mm
09:10 AM 21.9°F-5.6°C 14.9°F-9.5°C 74% 4.0 mph SSE6.4 kmh SSE 10.0 mph16.1 kmh 30.22 in1023.4 mb 0.00 in0.0 mm 0.00 in0.0 mm 0.00 in0.0 mm
09:15 AM 22.1°F-5.5°C 14.8°F-9.6°C 73% 6.0 mph SE9.7 kmh SE 11.0 mph17.7 kmh 30.22 in1023.4 mb 0.00 in0.0 mm 0.00 in0.0 mm 0.00 in0.0 mm
09:20 AM 22.2°F-5.4°C 14.6°F-9.7°C 72% 8.0 mph SE12.9 kmh SE 11.0 mph17.7 kmh 30.22 in1023.4 mb 0.00 in0.0 mm 0.00 in0.0 mm 0.00 in0.0 mm
09:25 AM 22.2°F-5.4°C 14.6°F-9.7°C 72% 7.0 mph SE11.3 kmh SE 11.0 mph17.7 kmh 30.22 in1023.4 mb 0.00 in0.0 mm 0.00 in0.0 mm 0.00 in0.0 mm
09:30 AM 22.6°F-5.2°C 14.6°F-9.7°C 71% 10.0 mph SSE16.1 kmh SSE 11.0 mph17.7 kmh 30.22 in1023.4 mb 0.00 in0.0 mm 0.00 in0.0 mm 0.00 in0.0 mm
09:35 AM 23.0°F-5.0°C 14.7°F-9.6°C 70% 4.0 mph SE6.4 kmh SE 10.0 mph16.1 kmh 30.22 in1023.4 mb 0.00 in0.0 mm 0.00 in0.0 mm 0.00 in0.0 mm
09:40 AM 23.4°F-4.8°C 15.1°F-9.4°C 70% 5.0 mph SE8.0 kmh SE 10.0 mph16.1 kmh 30.21 in1023.0 mb 0.00 in0.0 mm 0.00 in0.0 mm 0.00 in0.0 mm
09:45 AM 23.7°F-4.6°C 14.7°F-9.6°C 68% 6.0 mph SE9.7 kmh SE 11.0 mph17.7 kmh 30.21 in1023.0 mb 0.00 in0.0 mm 0.00 in0.0 mm 0.00 in0.0 mm
09:50 AM 23.9°F-4.5°C 14.9°F-9.5°C 68% 9.0 mph SSE14.5 kmh SSE 13.0 mph20.9 kmh 30.21 in1023.0 mb 0.00 in0.0 mm 0.00 in0.0 mm 0.00 in0.0 mm
09:55 AM 23.8°F-4.6°C 14.5°F-9.7°C 67% 4.0 mph WNW6.4 kmh WNW 14.0 mph22.5 kmh 30.21 in1023.0 mb 0.00 in0.0 mm 0.00 in0.0 mm 0.00 in0.0 mm
10:00 AM 23.9°F-4.5°C 14.9°F-9.5°C 68% 7.0 mph SE11.3 kmh SE 17.0 mph27.4 kmh 30.21 in1023.0 mb 0.00 in0.0 mm 0.00 in0.0 mm 0.00 in0.0 mm
10:05 AM 24.1°F-4.4°C 14.7°F-9.6°C 67% 3.0 mph ESE4.8 kmh ESE 14.0 mph22.5 kmh 30.20 in1022.7 mb 0.00 in0.0 mm 0.00 in0.0 mm 0.00 in0.0 mm
10:10 AM 24.2°F-4.3°C 15.2°F-9.3°C 68% 5.0 mph ESE8.0 kmh ESE 15.0 mph24.1 kmh 30.20 in1022.7 mb 0.00 in0.0 mm 0.00 in0.0 mm 0.00 in0.0 mm
10:15 AM 24.2°F-4.3°C 15.2°F-9.3°C 68% 7.0 mph S11.3 kmh S 15.0 mph24.1 kmh 30.20 in1022.7 mb 0.00 in0.0 mm 0.00 in0.0 mm 0.00 in0.0 mm
10:20 AM 24.2°F-4.3°C 15.2°F-9.3°C 68% 9.0 mph SE14.5 kmh SE 10.0 mph16.1 kmh 30.19 in1022.4 mb 0.00 in0.0 mm 0.00 in0.0 mm 0.00 in0.0 mm
10:25 AM 24.2°F-4.3°C 15.2°F-9.3°C 68% 10.0 mph SE16.1 kmh SE 16.0 mph25.7 kmh 30.19 in1022.4 mb 0.00 in0.0 mm 0.00 in0.0 mm 0.00 in0.0 mm
10:30 AM 24.2°F-4.3°C 15.2°F-9.3°C 68% 9.0 mph SE14.5 kmh SE 16.0 mph25.7 kmh 30.18 in1022.0 mb 0.00 in0.0 mm 0.00 in0.0 mm 0.00 in0.0 mm
10:35 AM 24.2°F-4.3°C 15.2°F-9.3°C 68% 10.0 mph SE16.1 kmh SE 14.0 mph22.5 kmh 30.18 in1022.0 mb 0.00 in0.0 mm 0.00 in0.0 mm 0.00 in0.0 mm
10:40 AM 24.2°F-4.3°C 15.2°F-9.3°C 68% 7.0 mph E11.3 kmh E 14.0 mph22.5 kmh 30.18 in1022.0 mb 0.00 in0.0 mm 0.00 in0.0 mm 0.00 in0.0 mm
10:45 AM 24.2°F-4.3°C 15.2°F-9.3°C 68% 6.0 mph SE9.7 kmh SE 14.0 mph22.5 kmh 30.17 in1021.7 mb 0.00 in0.0 mm 0.00 in0.0 mm 0.00 in0.0 mm
10:50 AM 24.2°F-4.3°C 15.2°F-9.3°C 68% 8.0 mph SE12.9 kmh SE 14.0 mph22.5 kmh 30.17 in1021.7 mb 0.00 in0.0 mm 0.00 in0.0 mm 0.00 in0.0 mm
10:55 AM 26.7°F-2.9°C 15.8°F-9.0°C 63% 8.0 mph SE12.9 kmh SE 17.0 mph27.4 kmh 30.17 in1021.7 mb 0.00 in0.0 mm 0.00 in0.0 mm 0.00 in0.0 mm
11:00 AM 26.9°F-2.8°C 16.0°F-8.9°C 63% 8.0 mph SE12.9 kmh SE 17.0 mph27.4 kmh 30.17 in1021.7 mb 0.00 in0.0 mm 0.00 in0.0 mm 0.00 in0.0 mm
11:05 AM 27.6°F-2.4°C 17.0°F-8.3°C 64% 7.0 mph SE11.3 kmh SE 15.0 mph24.1 kmh 30.17 in1021.7 mb 0.00 in0.0 mm 0.00 in0.0 mm 0.00 in0.0 mm
11:10 AM 28.1°F-2.2°C 16.8°F-8.4°C 62% 8.0 mph SE12.9 kmh SE 16.0 mph25.7 kmh 30.17 in1021.7 mb 0.00 in0.0 mm 0.00 in0.0 mm 0.00 in0.0 mm
11:15 AM 28.8°F-1.8°C 17.4°F-8.1°C 62% 6.0 mph SE9.7 kmh SE 16.0 mph25.7 kmh 30.17 in1021.7 mb 0.00 in0.0 mm 0.00 in0.0 mm 0.00 in0.0 mm
11:20 AM 29.3°F-1.5°C 17.9°F-7.8°C 62% 4.0 mph SE6.4 kmh SE 13.0 mph20.9 kmh 30.17 in1021.7 mb 0.00 in0.0 mm 0.00 in0.0 mm 0.00 in0.0 mm
11:25 AM 29.7°F-1.3°C 17.5°F-8.1°C 60% 11.0 mph SE17.7 kmh SE 13.0 mph20.9 kmh 30.17 in1021.7 mb 0.00 in0.0 mm 0.00 in0.0 mm 0.00 in0.0 mm
11:30 AM 29.6°F-1.3°C 17.4°F-8.1°C 60% 5.0 mph SE8.0 kmh SE 15.0 mph24.1 kmh 30.16 in1021.3 mb 0.00 in0.0 mm 0.00 in0.0 mm 0.00 in0.0 mm
11:35 AM 29.6°F-1.3°C 17.4°F-8.1°C 60% 8.0 mph SE12.9 kmh SE 12.0 mph19.3 kmh 30.16 in1021.3 mb 0.00 in0.0 mm 0.00 in0.0 mm 0.00 in0.0 mm
11:40 AM 29.8°F-1.2°C 17.6°F-8.0°C 60% 8.0 mph SE12.9 kmh SE 15.0 mph24.1 kmh 30.16 in1021.3 mb 0.00 in0.0 mm 0.00 in0.0 mm 0.00 in0.0 mm
11:45 AM 30.5°F-0.8°C 17.5°F-8.1°C 58% 7.0 mph E11.3 kmh E 15.0 mph24.1 kmh 30.16 in1021.3 mb 0.00 in0.0 mm 0.00 in0.0 mm 0.00 in0.0 mm
11:50 AM 30.3°F-0.9°C 17.7°F-7.9°C 59% 7.0 mph SE11.3 kmh SE 14.0 mph22.5 kmh 30.16 in1021.3 mb 0.00 in0.0 mm 0.00 in0.0 mm 0.00 in0.0 mm
11:55 AM 30.8°F-0.7°C 18.6°F-7.4°C 60% 1.0 mph ESE1.6 kmh ESE 14.0 mph22.5 kmh 30.15 in1021.0 mb 0.00 in0.0 mm 0.00 in0.0 mm 0.00 in0.0 mm
12:00 PM 31.2°F-0.4°C 18.6°F-7.4°C 59% 7.0 mph ESE11.3 kmh ESE 14.0 mph22.5 kmh 30.15 in1021.0 mb 0.00 in0.0 mm 0.00 in0.0 mm 0.00 in0.0 mm
12:05 PM 31.0°F-0.6°C 18.0°F-7.8°C 58% 4.0 mph ESE6.4 kmh ESE 10.0 mph16.1 kmh 30.15 in1021.0 mb 0.00 in0.0 mm 0.00 in0.0 mm 0.00 in0.0 mm
12:10 PM 30.3°F-0.9°C 18.1°F-7.7°C 60% 10.0 mph E16.1 kmh E 12.0 mph19.3 kmh 30.15 in1021.0 mb 0.00 in0.0 mm 0.00 in0.0 mm 0.00 in0.0 mm
12:15 PM 30.7°F-0.7°C 18.1°F-7.7°C 59% 6.0 mph E9.7 kmh E 12.0 mph19.3 kmh 30.14 in1020.7 mb 0.00 in0.0 mm 0.00 in0.0 mm 0.00 in0.0 mm
12:20 PM 30.9°F-0.6°C 18.7°F-7.4°C 60% 4.0 mph E6.4 kmh E 8.0 mph12.9 kmh 30.13 in1020.3 mb 0.00 in0.0 mm 0.00 in0.0 mm 0.00 in0.0 mm
12:25 PM 31.3°F-0.4°C 19.0°F-7.2°C 60% 5.0 mph E8.0 kmh E 10.0 mph16.1 kmh 30.13 in1020.3 mb 0.00 in0.0 mm 0.00 in0.0 mm 0.00 in0.0 mm
12:30 PM 31.5°F-0.3°C 18.4°F-7.6°C 58% 7.0 mph ESE11.3 kmh ESE 12.0 mph19.3 kmh 30.13 in1020.3 mb 0.00 in0.0 mm 0.00 in0.0 mm 0.00 in0.0 mm
12:35 PM 31.8°F-0.1°C 18.7°F-7.4°C 58% 9.0 mph E14.5 kmh E 11.0 mph17.7 kmh 30.12 in1020.0 mb 0.00 in0.0 mm 0.00 in0.0 mm 0.00 in0.0 mm
12:40 PM 32.3°F0.2°C 19.6°F-6.9°C 59% 3.0 mph ESE4.8 kmh ESE 11.0 mph17.7 kmh 30.12 in1020.0 mb 0.00 in0.0 mm 0.00 in0.0 mm 0.00 in0.0 mm
12:45 PM 32.4°F0.2°C 18.9°F-7.3°C 57% 5.0 mph E8.0 kmh E 11.0 mph17.7 kmh 30.11 in1019.6 mb 0.00 in0.0 mm 0.00 in0.0 mm 0.00 in0.0 mm
12:50 PM 33.6°F0.9°C 18.7°F-7.4°C 54% 7.0 mph ESE11.3 kmh ESE 20.0 mph32.2 kmh 30.11 in1019.6 mb 0.00 in0.0 mm 0.00 in0.0 mm 0.00 in0.0 mm
12:55 PM 34.3°F1.3°C 19.0°F-7.2°C 53% 6.0 mph ESE9.7 kmh ESE 20.0 mph32.2 kmh 30.11 in1019.6 mb 0.00 in0.0 mm 0.00 in0.0 mm 0.00 in0.0 mm
01:00 PM 34.6°F1.4°C 18.8°F-7.3°C 52% 6.0 mph S9.7 kmh S 20.0 mph32.2 kmh 30.10 in1019.3 mb 0.00 in0.0 mm 0.00 in0.0 mm 0.00 in0.0 mm
01:05 PM 34.7°F1.5°C 18.4°F-7.6°C 51% 11.0 mph ESE17.7 kmh ESE 14.0 mph22.5 kmh 30.10 in1019.3 mb 0.00 in0.0 mm 0.00 in0.0 mm 0.00 in0.0 mm
01:10 PM 34.4°F1.3°C 17.2°F-8.2°C 49% 9.0 mph SE14.5 kmh SE 16.0 mph25.7 kmh 30.10 in1019.3 mb 0.00 in0.0 mm 0.00 in0.0 mm 0.00 in0.0 mm
01:15 PM 34.0°F1.1°C 17.3°F-8.2°C 50% 5.0 mph SE8.0 kmh SE 16.0 mph25.7 kmh 30.09 in1019.0 mb 0.00 in0.0 mm 0.00 in0.0 mm 0.00 in0.0 mm
01:20 PM 34.2°F1.2°C 17.1°F-8.3°C 49% 7.0 mph ESE11.3 kmh ESE 13.0 mph20.9 kmh 30.09 in1019.0 mb 0.00 in0.0 mm 0.00 in0.0 mm 0.00 in0.0 mm
01:25 PM 34.1°F1.2°C 16.5°F-8.6°C 48% 5.0 mph E8.0 kmh E 13.0 mph20.9 kmh 30.08 in1018.6 mb 0.00 in0.0 mm 0.00 in0.0 mm 0.00 in0.0 mm
01:30 PM 34.3°F1.3°C 17.1°F-8.3°C 49% 8.0 mph SE12.9 kmh SE 13.0 mph20.9 kmh 30.08 in1018.6 mb 0.00 in0.0 mm 0.00 in0.0 mm 0.00 in0.0 mm
01:35 PM 34.3°F1.3°C 17.6°F-8.0°C 50% 8.0 mph SE12.9 kmh SE 16.0 mph25.7 kmh 30.08 in1018.6 mb 0.00 in0.0 mm 0.00 in0.0 mm 0.00 in0.0 mm
01:40 PM 33.8°F1.0°C 16.7°F-8.5°C 49% 8.0 mph SSE12.9 kmh SSE 17.0 mph27.4 kmh 30.08 in1018.6 mb 0.00 in0.0 mm 0.00 in0.0 mm 0.00 in0.0 mm
01:45 PM 34.1°F1.2°C 17.9°F-7.8°C 51% 6.0 mph SSE9.7 kmh SSE 17.0 mph27.4 kmh 30.07 in1018.3 mb 0.00 in0.0 mm 0.00 in0.0 mm 0.00 in0.0 mm
01:50 PM 34.4°F1.3°C 17.7°F-7.9°C 50% 4.0 mph S6.4 kmh S 15.0 mph24.1 kmh 30.07 in1018.3 mb 0.00 in0.0 mm 0.00 in0.0 mm 0.00 in0.0 mm
01:55 PM 35.2°F1.8°C 18.0°F-7.8°C 49% 6.0 mph SSE9.7 kmh SSE 15.0 mph24.1 kmh 30.07 in1018.3 mb 0.00 in0.0 mm 0.00 in0.0 mm 0.00 in0.0 mm
02:00 PM 34.6°F1.4°C 17.4°F-8.1°C 49% 7.0 mph S11.3 kmh S 16.0 mph25.7 kmh 30.07 in1018.3 mb 0.00 in0.0 mm 0.00 in0.0 mm 0.00 in0.0 mm
02:05 PM 35.0°F1.7°C 17.3°F-8.2°C 48% 8.0 mph SE12.9 kmh SE 15.0 mph24.1 kmh 30.07 in1018.3 mb 0.00 in0.0 mm 0.00 in0.0 mm 0.00 in0.0 mm
02:10 PM 34.6°F1.4°C 16.9°F-8.4°C 48% 3.0 mph S4.8 kmh S 15.0 mph24.1 kmh 30.06 in1017.9 mb 0.00 in0.0 mm 0.00 in0.0 mm 0.00 in0.0 mm
02:15 PM 34.5°F1.4°C 17.8°F-7.9°C 50% 7.0 mph S11.3 kmh S 15.0 mph24.1 kmh 30.06 in1017.9 mb 0.00 in0.0 mm 0.00 in0.0 mm 0.00 in0.0 mm
02:20 PM 34.1°F1.2°C 17.9°F-7.8°C 51% 6.0 mph SSE9.7 kmh SSE 17.0 mph27.4 kmh 30.06 in1017.9 mb 0.00 in0.0 mm 0.00 in0.0 mm 0.00 in0.0 mm
02:25 PM 34.2°F1.2°C 18.0°F-7.8°C 51% 5.0 mph SE8.0 kmh SE 17.0 mph27.4 kmh 30.06 in1017.9 mb 0.00 in0.0 mm 0.00 in0.0 mm 0.00 in0.0 mm
02:30 PM 34.1°F1.2°C 17.9°F-7.8°C 51% 8.0 mph SSE12.9 kmh SSE 17.0 mph27.4 kmh 30.06 in1017.9 mb 0.00 in0.0 mm 0.00 in0.0 mm 0.00 in0.0 mm
02:35 PM 34.1°F1.2°C 17.4°F-8.1°C 50% 8.0 mph SSE12.9 kmh SSE 14.0 mph22.5 kmh 30.05 in1017.6 mb 0.00 in0.0 mm 0.00 in0.0 mm 0.00 in0.0 mm
02:40 PM 34.1°F1.2°C 17.4°F-8.1°C 50% 8.0 mph SE12.9 kmh SE 16.0 mph25.7 kmh 30.05 in1017.6 mb 0.00 in0.0 mm 0.00 in0.0 mm 0.00 in0.0 mm
02:45 PM 34.2°F1.2°C 17.1°F-8.3°C 49% 8.0 mph SE12.9 kmh SE 16.0 mph25.7 kmh 30.04 in1017.3 mb 0.00 in0.0 mm 0.00 in0.0 mm 0.00 in0.0 mm
02:50 PM 34.4°F1.3°C 18.2°F-7.7°C 51% 4.0 mph SSE6.4 kmh SSE 12.0 mph19.3 kmh 30.04 in1017.3 mb 0.00 in0.0 mm 0.00 in0.0 mm 0.00 in0.0 mm
02:55 PM 34.4°F1.3°C 17.7°F-7.9°C 50% 2.0 mph SSE3.2 kmh SSE 12.0 mph19.3 kmh 30.04 in1017.3 mb 0.00 in0.0 mm 0.00 in0.0 mm 0.00 in0.0 mm
03:00 PM 34.7°F1.5°C 18.0°F-7.8°C 50% 6.0 mph SE9.7 kmh SE 12.0 mph19.3 kmh 30.04 in1017.3 mb 0.00 in0.0 mm 0.00 in0.0 mm 0.00 in0.0 mm
03:05 PM 34.5°F1.4°C 17.8°F-7.9°C 50% 3.0 mph SSE4.8 kmh SSE 9.0 mph14.5 kmh 30.03 in1016.9 mb 0.00 in0.0 mm 0.00 in0.0 mm 0.00 in0.0 mm
03:10 PM 34.5°F1.4°C 18.3°F-7.6°C 51% 11.0 mph S17.7 kmh S 11.0 mph17.7 kmh 30.03 in1016.9 mb 0.00 in0.0 mm 0.00 in0.0 mm 0.00 in0.0 mm
03:15 PM 34.4°F1.3°C 18.6°F-7.4°C 52% 7.0 mph SW11.3 kmh SW 12.0 mph19.3 kmh 30.03 in1016.9 mb 0.00 in0.0 mm 0.00 in0.0 mm 0.00 in0.0 mm
03:20 PM 34.2°F1.2°C 18.4°F-7.6°C 52% 6.0 mph S9.7 kmh S 10.0 mph16.1 kmh 30.03 in1016.9 mb 0.00 in0.0 mm 0.00 in0.0 mm 0.00 in0.0 mm
03:25 PM 34.4°F1.3°C 19.1°F-7.2°C 53% 5.0 mph SSE8.0 kmh SSE 10.0 mph16.1 kmh 30.03 in1016.9 mb 0.00 in0.0 mm 0.00 in0.0 mm 0.00 in0.0 mm
03:30 PM 34.4°F1.3°C 18.2°F-7.7°C 51% 9.0 mph S14.5 kmh S 12.0 mph19.3 kmh 30.03 in1016.9 mb 0.00 in0.0 mm 0.00 in0.0 mm 0.00 in0.0 mm
03:35 PM 34.3°F1.3°C 18.1°F-7.7°C 51% 2.0 mph S3.2 kmh S 12.0 mph19.3 kmh 30.03 in1016.9 mb 0.00 in0.0 mm 0.00 in0.0 mm 0.00 in0.0 mm
03:40 PM 34.4°F1.3°C 17.7°F-7.9°C 50% 7.0 mph SSE11.3 kmh SSE 13.0 mph20.9 kmh 30.03 in1016.9 mb 0.00 in0.0 mm 0.00 in0.0 mm 0.00 in0.0 mm
03:45 PM 34.3°F1.3°C 18.1°F-7.7°C 51% 7.0 mph SSE11.3 kmh SSE 13.0 mph20.9 kmh 30.02 in1016.6 mb 0.00 in0.0 mm 0.00 in0.0 mm 0.00 in0.0 mm
03:50 PM 34.3°F1.3°C 17.6°F-8.0°C 50% 5.0 mph S8.0 kmh S 13.0 mph20.9 kmh 30.02 in1016.6 mb 0.00 in0.0 mm 0.00 in0.0 mm 0.00 in0.0 mm
03:55 PM 34.4°F1.3°C 17.7°F-7.9°C 50% 7.0 mph SSE11.3 kmh SSE 13.0 mph20.9 kmh 30.02 in1016.6 mb 0.00 in0.0 mm 0.00 in0.0 mm 0.00 in0.0 mm
04:00 PM 34.4°F1.3°C 17.7°F-7.9°C 50% 2.0 mph S3.2 kmh S 15.0 mph24.1 kmh 30.02 in1016.6 mb 0.00 in0.0 mm 0.00 in0.0 mm 0.00 in0.0 mm
04:05 PM 34.3°F1.3°C 17.6°F-8.0°C 50% 10.0 mph ESE16.1 kmh ESE 17.0 mph27.4 kmh 30.02 in1016.6 mb 0.00 in0.0 mm 0.00 in0.0 mm 0.00 in0.0 mm
04:10 PM 34.1°F1.2°C 17.4°F-8.1°C 50% 7.0 mph SE11.3 kmh SE 17.0 mph27.4 kmh 30.02 in1016.6 mb 0.00 in0.0 mm 0.00 in0.0 mm 0.00 in0.0 mm
04:15 PM 34.1°F1.2°C 17.9°F-7.8°C 51% 5.0 mph SSE8.0 kmh SSE 17.0 mph27.4 kmh 30.02 in1016.6 mb 0.00 in0.0 mm 0.00 in0.0 mm 0.00 in0.0 mm
04:20 PM 34.1°F1.2°C 17.9°F-7.8°C 51% 9.0 mph S14.5 kmh S 12.0 mph19.3 kmh 30.02 in1016.6 mb 0.00 in0.0 mm 0.00 in0.0 mm 0.00 in0.0 mm
04:25 PM 34.1°F1.2°C 17.9°F-7.8°C 51% 6.0 mph SSE9.7 kmh SSE 14.0 mph22.5 kmh 30.02 in1016.6 mb 0.00 in0.0 mm 0.00 in0.0 mm 0.00 in0.0 mm
04:30 PM 34.1°F1.2°C 18.8°F-7.3°C 53% 7.0 mph SSE11.3 kmh SSE 14.0 mph22.5 kmh 30.02 in1016.6 mb 0.00 in0.0 mm 0.00 in0.0 mm 0.00 in0.0 mm
04:35 PM 34.1°F1.2°C 19.2°F-7.1°C 54% 5.0 mph SE8.0 kmh SE 12.0 mph19.3 kmh 30.02 in1016.6 mb 0.00 in0.0 mm 0.00 in0.0 mm 0.00 in0.0 mm
04:40 PM 34.1°F1.2°C 19.6°F-6.9°C 55% 5.0 mph SSE8.0 kmh SSE 12.0 mph19.3 kmh 30.02 in1016.6 mb 0.00 in0.0 mm 0.00 in0.0 mm 0.00 in0.0 mm
04:45 PM 34.0°F1.1°C 20.4°F-6.4°C 57% 6.0 mph SSE9.7 kmh SSE 17.0 mph27.4 kmh 30.02 in1016.6 mb 0.00 in0.0 mm 0.00 in0.0 mm 0.00 in0.0 mm
04:50 PM 33.7°F0.9°C 20.9°F-6.2°C 59% 6.0 mph SE9.7 kmh SE 18.0 mph29.0 kmh 30.01 in1016.3 mb 0.00 in0.0 mm 0.00 in0.0 mm 0.00 in0.0 mm
04:55 PM 33.4°F0.8°C 21.8°F-5.7°C 62% 10.0 mph SE16.1 kmh SE 18.0 mph29.0 kmh 30.02 in1016.6 mb 0.00 in0.0 mm 0.00 in0.0 mm 0.00 in0.0 mm
05:00 PM 33.0°F0.6°C 22.2°F-5.4°C 64% 8.0 mph SE12.9 kmh SE 18.0 mph29.0 kmh 30.01 in1016.3 mb 0.00 in0.0 mm 0.00 in0.0 mm 0.00 in0.0 mm
05:05 PM 32.9°F0.5°C 22.1°F-5.5°C 64% 5.0 mph SE8.0 kmh SE 10.0 mph16.1 kmh 30.01 in1016.3 mb 0.00 in0.0 mm 0.00 in0.0 mm 0.00 in0.0 mm
05:10 PM 32.7°F0.4°C 22.3°F-5.4°C 65% 6.0 mph S9.7 kmh S 13.0 mph20.9 kmh 30.01 in1016.3 mb 0.00 in0.0 mm 0.00 in0.0 mm 0.00 in0.0 mm
05:15 PM 32.6°F0.3°C 22.5°F-5.3°C 66% 11.0 mph SE17.7 kmh SE 14.0 mph22.5 kmh 30.01 in1016.3 mb 0.00 in0.0 mm 0.00 in0.0 mm 0.00 in0.0 mm
05:20 PM 32.5°F0.3°C 22.4°F-5.3°C 66% 4.0 mph SE6.4 kmh SE 14.0 mph22.5 kmh 30.01 in1016.3 mb 0.00 in0.0 mm 0.00 in0.0 mm 0.00 in0.0 mm
05:25 PM 32.6°F0.3°C 22.2°F-5.4°C 65% 6.0 mph SSE9.7 kmh SSE 14.0 mph22.5 kmh 30.01 in1016.3 mb 0.00 in0.0 mm 0.00 in0.0 mm 0.00 in0.0 mm
05:30 PM 32.7°F0.4°C 22.3°F-5.4°C 65% 8.0 mph SSE12.9 kmh SSE 14.0 mph22.5 kmh 30.00 in1015.9 mb 0.00 in0.0 mm 0.00 in0.0 mm 0.00 in0.0 mm
05:35 PM 32.8°F0.4°C 22.0°F-5.6°C 64% 9.0 mph S14.5 kmh S 11.0 mph17.7 kmh 30.00 in1015.9 mb 0.00 in0.0 mm 0.00 in0.0 mm 0.00 in0.0 mm
05:40 PM 32.6°F0.3°C 22.2°F-5.4°C 65% 8.0 mph SSE12.9 kmh SSE 15.0 mph24.1 kmh 30.00 in1015.9 mb 0.00 in0.0 mm 0.00 in0.0 mm 0.00 in0.0 mm
05:45 PM 32.3°F0.2°C 22.6°F-5.2°C 67% 8.0 mph SE12.9 kmh SE 15.0 mph24.1 kmh 30.00 in1015.9 mb 0.00 in0.0 mm 0.00 in0.0 mm 0.00 in0.0 mm
05:50 PM 32.0°F0.0°C 22.7°F-5.2°C 68% 10.0 mph SSE16.1 kmh SSE 16.0 mph25.7 kmh 30.00 in1015.9 mb 0.00 in0.0 mm 0.00 in0.0 mm 0.00 in0.0 mm
05:55 PM 31.7°F-0.2°C 23.1°F-4.9°C 70% 10.0 mph S16.1 kmh S 19.0 mph30.6 kmh 30.00 in1015.9 mb 0.00 in0.0 mm 0.00 in0.0 mm 0.00 in0.0 mm
06:05 PM 31.3°F-0.4°C 23.7°F-4.6°C 73% 5.0 mph S8.0 kmh S 14.0 mph22.5 kmh 29.99 in1015.6 mb 0.00 in0.0 mm 0.00 in0.0 mm 0.00 in0.0 mm
06:10 PM 31.0°F-0.6°C 23.7°F-4.6°C 74% 12.0 mph SSE19.3 kmh SSE 14.0 mph22.5 kmh 30.00 in1015.9 mb 0.00 in0.0 mm 0.00 in0.0 mm 0.00 in0.0 mm
06:15 PM 30.7°F-0.7°C 24.0°F-4.4°C 76% 12.0 mph SSE19.3 kmh SSE 14.0 mph22.5 kmh 30.00 in1015.9 mb 0.00 in0.0 mm 0.00 in0.0 mm 0.00 in0.0 mm
06:20 PM 30.5°F-0.8°C 24.2°F-4.3°C 77% 2.0 mph SSE3.2 kmh SSE 15.0 mph24.1 kmh 30.00 in1015.9 mb 0.00 in0.0 mm 0.00 in0.0 mm 0.00 in0.0 mm
06:25 PM 30.4°F-0.9°C 24.4°F-4.2°C 78% 12.0 mph SSE19.3 kmh SSE 15.0 mph24.1 kmh 29.99 in1015.6 mb 0.00 in0.0 mm 0.00 in0.0 mm 0.00 in0.0 mm
06:30 PM 30.3°F-0.9°C 24.3°F-4.3°C 78% 8.0 mph SE12.9 kmh SE 16.0 mph25.7 kmh 29.99 in1015.6 mb 0.00 in0.0 mm 0.00 in0.0 mm 0.00 in0.0 mm
06:35 PM 30.3°F-0.9°C 24.3°F-4.3°C 78% 10.0 mph SE16.1 kmh SE 18.0 mph29.0 kmh 29.99 in1015.6 mb 0.00 in0.0 mm 0.00 in0.0 mm 0.00 in0.0 mm
06:40 PM 30.3°F-0.9°C 24.3°F-4.3°C 78% 10.0 mph E16.1 kmh E 18.0 mph29.0 kmh 29.99 in1015.6 mb 0.00 in0.0 mm 0.00 in0.0 mm 0.00 in0.0 mm
06:45 PM 30.2°F-1.0°C 24.5°F-4.2°C 79% 6.0 mph SE9.7 kmh SE 18.0 mph29.0 kmh 29.99 in1015.6 mb 0.00 in0.0 mm 0.00 in0.0 mm 0.00 in0.0 mm
06:50 PM 30.2°F-1.0°C 24.5°F-4.2°C 79% 8.0 mph SE12.9 kmh SE 13.0 mph20.9 kmh 29.99 in1015.6 mb 0.00 in0.0 mm 0.00 in0.0 mm 0.00 in0.0 mm
06:55 PM 30.2°F-1.0°C 24.8°F-4.0°C 80% 11.0 mph SE17.7 kmh SE 14.0 mph22.5 kmh 29.99 in1015.6 mb 0.00 in0.0 mm 0.00 in0.0 mm 0.00 in0.0 mm
07:00 PM 30.1°F-1.1°C 24.7°F-4.1°C 80% 9.0 mph S14.5 kmh S 17.0 mph27.4 kmh 29.99 in1015.6 mb 0.00 in0.0 mm 0.00 in0.0 mm 0.00 in0.0 mm
07:05 PM 30.0°F-1.1°C 24.9°F-3.9°C 81% 11.0 mph SE17.7 kmh SE 16.0 mph25.7 kmh 29.99 in1015.6 mb 0.00 in0.0 mm 0.00 in0.0 mm 0.00 in0.0 mm
07:10 PM 29.8°F-1.2°C 25.0°F-3.9°C 82% 10.0 mph SE16.1 kmh SE 16.0 mph25.7 kmh 29.99 in1015.6 mb 0.00 in0.0 mm 0.00 in0.0 mm 0.00 in0.0 mm
07:15 PM 29.7°F-1.3°C 24.9°F-3.9°C 82% 4.0 mph SE6.4 kmh SE 16.0 mph25.7 kmh 29.99 in1015.6 mb 0.00 in0.0 mm 0.00 in0.0 mm 0.00 in0.0 mm
07:20 PM 29.6°F-1.3°C 24.8°F-4.0°C 82% 6.0 mph SSE9.7 kmh SSE 15.0 mph24.1 kmh 29.99 in1015.6 mb 0.00 in0.0 mm 0.00 in0.0 mm 0.00 in0.0 mm
07:25 PM 29.5°F-1.4°C 25.0°F-3.9°C 83% 8.0 mph ESE12.9 kmh ESE 16.0 mph25.7 kmh 29.99 in1015.6 mb 0.00 in0.0 mm 0.00 in0.0 mm 0.00 in0.0 mm
07:30 PM 29.5°F-1.4°C 25.0°F-3.9°C 83% 11.0 mph SE17.7 kmh SE 16.0 mph25.7 kmh 29.99 in1015.6 mb 0.00 in0.0 mm 0.00 in0.0 mm 0.00 in0.0 mm
07:35 PM 29.4°F-1.4°C 25.2°F-3.8°C 84% 8.0 mph SE12.9 kmh SE 17.0 mph27.4 kmh 29.98 in1015.2 mb 0.00 in0.0 mm 0.00 in0.0 mm 0.00 in0.0 mm
07:40 PM 29.3°F-1.5°C 25.1°F-3.8°C 84% 4.0 mph E6.4 kmh E 17.0 mph27.4 kmh 29.98 in1015.2 mb 0.00 in0.0 mm 0.00 in0.0 mm 0.00 in0.0 mm
07:45 PM 29.2°F-1.6°C 25.3°F-3.7°C 85% 10.0 mph SE16.1 kmh SE 17.0 mph27.4 kmh 29.98 in1015.2 mb 0.00 in0.0 mm 0.00 in0.0 mm 0.00 in0.0 mm
07:50 PM 29.2°F-1.6°C 25.3°F-3.7°C 85% 7.0 mph ESE11.3 kmh ESE 12.0 mph19.3 kmh 29.98 in1015.2 mb 0.00 in0.0 mm 0.00 in0.0 mm 0.00 in0.0 mm
07:55 PM 29.1°F-1.6°C 25.2°F-3.8°C 85% 6.0 mph SE9.7 kmh SE 12.0 mph19.3 kmh 29.98 in1015.2 mb 0.00 in0.0 mm 0.00 in0.0 mm 0.00 in0.0 mm
08:00 PM 29.1°F-1.6°C 25.4°F-3.7°C 86% 7.0 mph SE11.3 kmh SE 16.0 mph25.7 kmh 29.98 in1015.2 mb 0.00 in0.0 mm 0.00 in0.0 mm 0.00 in0.0 mm
08:05 PM 29.1°F-1.6°C 25.4°F-3.7°C 86% 3.0 mph SE4.8 kmh SE 14.0 mph22.5 kmh 29.98 in1015.2 mb 0.00 in0.0 mm 0.00 in0.0 mm 0.00 in0.0 mm
08:10 PM 29.1°F-1.6°C 25.4°F-3.7°C 86% 9.0 mph SE14.5 kmh SE 15.0 mph24.1 kmh 29.98 in1015.2 mb 0.00 in0.0 mm 0.00 in0.0 mm 0.00 in0.0 mm
08:15 PM 29.0°F-1.7°C 25.4°F-3.7°C 86% 8.0 mph SE12.9 kmh SE 15.0 mph24.1 kmh 29.97 in1014.9 mb 0.00 in0.0 mm 0.00 in0.0 mm 0.00 in0.0 mm
08:20 PM 29.0°F-1.7°C 25.4°F-3.7°C 86% 8.0 mph SSE12.9 kmh SSE 17.0 mph27.4 kmh 29.97 in1014.9 mb 0.00 in0.0 mm 0.00 in0.0 mm 0.00 in0.0 mm
08:25 PM 29.0°F-1.7°C 25.4°F-3.7°C 86% 7.0 mph SE11.3 kmh SE 17.0 mph27.4 kmh 29.97 in1014.9 mb 0.00 in0.0 mm 0.00 in0.0 mm 0.00 in0.0 mm
08:30 PM 29.0°F-1.7°C 25.4°F-3.7°C 86% 4.0 mph SSE6.4 kmh SSE 17.0 mph27.4 kmh 29.97 in1014.9 mb 0.00 in0.0 mm 0.00 in0.0 mm 0.00 in0.0 mm
08:35 PM 28.9°F-1.7°C 25.3°F-3.7°C 86% 14.0 mph SE22.5 kmh SE 14.0 mph22.5 kmh 29.97 in1014.9 mb 0.00 in0.0 mm 0.00 in0.0 mm 0.00 in0.0 mm
08:40 PM 28.9°F-1.7°C 25.3°F-3.7°C 86% 5.0 mph SSE8.0 kmh SSE 14.0 mph22.5 kmh 29.97 in1014.9 mb 0.00 in0.0 mm 0.00 in0.0 mm 0.00 in0.0 mm
08:45 PM 28.8°F-1.8°C 25.4°F-3.7°C 87% 6.0 mph SSE9.7 kmh SSE 15.0 mph24.1 kmh 29.97 in1014.9 mb 0.00 in0.0 mm 0.00 in0.0 mm 0.00 in0.0 mm
08:50 PM 28.8°F-1.8°C 25.4°F-3.7°C 87% 6.0 mph SSE9.7 kmh SSE 12.0 mph19.3 kmh 29.97 in1014.9 mb 0.00 in0.0 mm 0.00 in0.0 mm 0.00 in0.0 mm
08:55 PM 28.7°F-1.8°C 25.3°F-3.7°C 87% 5.0 mph SE8.0 kmh SE 13.0 mph20.9 kmh 29.96 in1014.6 mb 0.00 in0.0 mm 0.00 in0.0 mm 0.00 in0.0 mm
09:00 PM 28.6°F-1.9°C 25.5°F-3.6°C 88% 9.0 mph SE14.5 kmh SE 15.0 mph24.1 kmh 29.96 in1014.6 mb 0.00 in0.0 mm 0.00 in0.0 mm 0.00 in0.0 mm
09:05 PM 28.5°F-1.9°C 25.4°F-3.7°C 88% 5.0 mph SSE8.0 kmh SSE 13.0 mph20.9 kmh 29.96 in1014.6 mb 0.00 in0.0 mm 0.00 in0.0 mm 0.00 in0.0 mm
09:10 PM 28.5°F-1.9°C 25.7°F-3.5°C 89% 8.0 mph SE12.9 kmh SE 13.0 mph20.9 kmh 29.96 in1014.6 mb 0.00 in0.0 mm 0.00 in0.0 mm 0.00 in0.0 mm
09:15 PM 28.4°F-2.0°C 25.6°F-3.6°C 89% 8.0 mph SE12.9 kmh SE 13.0 mph20.9 kmh 29.96 in1014.6 mb 0.00 in0.0 mm 0.00 in0.0 mm 0.00 in0.0 mm
09:20 PM 28.3°F-2.1°C 25.5°F-3.6°C 89% 11.0 mph SSE17.7 kmh SSE 13.0 mph20.9 kmh 29.96 in1014.6 mb 0.00 in0.0 mm 0.00 in0.0 mm 0.00 in0.0 mm
09:25 PM 28.3°F-2.1°C 25.5°F-3.6°C 89% 5.0 mph SE8.0 kmh SE 13.0 mph20.9 kmh 29.96 in1014.6 mb 0.00 in0.0 mm 0.00 in0.0 mm 0.00 in0.0 mm
09:30 PM 28.2°F-2.1°C 25.7°F-3.5°C 90% 4.0 mph SE6.4 kmh SE 13.0 mph20.9 kmh 29.96 in1014.6 mb 0.00 in0.0 mm 0.00 in0.0 mm 0.00 in0.0 mm
09:35 PM 28.2°F-2.1°C 25.7°F-3.5°C 90% 2.0 mph SE3.2 kmh SE 11.0 mph17.7 kmh 29.96 in1014.6 mb 0.00 in0.0 mm 0.00 in0.0 mm 0.00 in0.0 mm
09:40 PM 28.2°F-2.1°C 25.7°F-3.5°C 90% 10.0 mph SSW16.1 kmh SSW 11.0 mph17.7 kmh 29.96 in1014.6 mb 0.00 in0.0 mm 0.00 in0.0 mm 0.00 in0.0 mm
09:45 PM 28.2°F-2.1°C 25.7°F-3.5°C 90% 5.0 mph SE8.0 kmh SE 13.0 mph20.9 kmh 29.96 in1014.6 mb 0.00 in0.0 mm 0.00 in0.0 mm 0.00 in0.0 mm
09:50 PM 28.2°F-2.1°C 25.7°F-3.5°C 90% 2.0 mph SSE3.2 kmh SSE 14.0 mph22.5 kmh 29.96 in1014.6 mb 0.00 in0.0 mm 0.00 in0.0 mm 0.00 in0.0 mm
09:55 PM 28.2°F-2.1°C 25.9°F-3.4°C 91% 4.0 mph S6.4 kmh S 14.0 mph22.5 kmh 29.96 in1014.6 mb 0.00 in0.0 mm 0.00 in0.0 mm 0.00 in0.0 mm
10:00 PM 28.1°F-2.2°C 25.8°F-3.4°C 91% 9.0 mph SE14.5 kmh SE 14.0 mph22.5 kmh 29.96 in1014.6 mb 0.00 in0.0 mm 0.00 in0.0 mm 0.00 in0.0 mm
10:05 PM 28.1°F-2.2°C 25.8°F-3.4°C 91% Calm Calm 9.0 mph14.5 kmh 29.96 in1014.6 mb 0.00 in0.0 mm 0.00 in0.0 mm 0.00 in0.0 mm
10:10 PM 28.1°F-2.2°C 25.8°F-3.4°C 91% 6.0 mph SSE9.7 kmh SSE 13.0 mph20.9 kmh 29.95 in1014.2 mb 0.00 in0.0 mm 0.00 in0.0 mm 0.00 in0.0 mm
10:15 PM 28.1°F-2.2°C 25.8°F-3.4°C 91% 10.0 mph SE16.1 kmh SE 13.0 mph20.9 kmh 29.95 in1014.2 mb 0.00 in0.0 mm 0.00 in0.0 mm 0.00 in0.0 mm
10:20 PM 28.1°F-2.2°C 25.8°F-3.4°C 91% 3.0 mph ESE4.8 kmh ESE 11.0 mph17.7 kmh 29.95 in1014.2 mb 0.00 in0.0 mm 0.00 in0.0 mm 0.00 in0.0 mm
10:25 PM 28.1°F-2.2°C 25.8°F-3.4°C 91% 6.0 mph SE9.7 kmh SE 12.0 mph19.3 kmh 29.95 in1014.2 mb 0.00 in0.0 mm 0.00 in0.0 mm 0.00 in0.0 mm
10:30 PM 28.1°F-2.2°C 25.8°F-3.4°C 91% 10.0 mph SE16.1 kmh SE 12.0 mph19.3 kmh 29.95 in1014.2 mb 0.01 in0.3 mm 0.12 in3.0 mm 0.01 in0.3 mm
10:35 PM 28.1°F-2.2°C 25.8°F-3.4°C 91% 4.0 mph SE6.4 kmh SE 12.0 mph19.3 kmh 29.95 in1014.2 mb 0.01 in0.3 mm 0.00 in0.0 mm 0.01 in0.3 mm
10:40 PM 28.1°F-2.2°C 25.8°F-3.4°C 91% 7.0 mph SE11.3 kmh SE 12.0 mph19.3 kmh 29.95 in1014.2 mb 0.01 in0.3 mm 0.00 in0.0 mm 0.01 in0.3 mm
10:45 PM 28.1°F-2.2°C 25.8°F-3.4°C 91% 5.0 mph SSE8.0 kmh SSE 12.0 mph19.3 kmh 29.95 in1014.2 mb 0.01 in0.3 mm 0.00 in0.0 mm 0.01 in0.3 mm
10:50 PM 28.1°F-2.2°C 25.8°F-3.4°C 91% 12.0 mph SSE19.3 kmh SSE 12.0 mph19.3 kmh 29.94 in1013.9 mb 0.01 in0.3 mm 0.00 in0.0 mm 0.01 in0.3 mm
10:55 PM 28.1°F-2.2°C 26.1°F-3.3°C 92% 2.0 mph S3.2 kmh S 12.0 mph19.3 kmh 29.94 in1013.9 mb 0.01 in0.3 mm 0.00 in0.0 mm 0.01 in0.3 mm
11:00 PM 28.1°F-2.2°C 26.1°F-3.3°C 92% 6.0 mph SE9.7 kmh SE 12.0 mph19.3 kmh 29.94 in1013.9 mb 0.01 in0.3 mm 0.00 in0.0 mm 0.01 in0.3 mm
11:05 PM 28.1°F-2.2°C 25.8°F-3.4°C 91% 8.0 mph SE12.9 kmh SE 15.0 mph24.1 kmh 29.94 in1013.9 mb 0.01 in0.3 mm 0.00 in0.0 mm 0.01 in0.3 mm
11:10 PM 28.2°F-2.1°C 25.9°F-3.4°C 91% 5.0 mph SE8.0 kmh SE 15.0 mph24.1 kmh 29.93 in1013.5 mb 0.01 in0.3 mm 0.00 in0.0 mm 0.01 in0.3 mm
11:15 PM 28.2°F-2.1°C 25.9°F-3.4°C 91% 8.0 mph SE12.9 kmh SE 15.0 mph24.1 kmh 29.93 in1013.5 mb 0.01 in0.3 mm 0.00 in0.0 mm 0.01 in0.3 mm
11:20 PM 28.3°F-2.1°C 26.0°F-3.3°C 91% 13.0 mph SSE20.9 kmh SSE 16.0 mph25.7 kmh 29.93 in1013.5 mb 0.01 in0.3 mm 0.00 in0.0 mm 0.01 in0.3 mm
11:25 PM 28.4°F-2.0°C 26.1°F-3.3°C 91% 7.0 mph S11.3 kmh S 16.0 mph25.7 kmh 29.93 in1013.5 mb 0.01 in0.3 mm 0.00 in0.0 mm 0.01 in0.3 mm
11:30 PM 28.4°F-2.0°C 26.1°F-3.3°C 91% 9.0 mph SE14.5 kmh SE 18.0 mph29.0 kmh 29.93 in1013.5 mb 0.01 in0.3 mm 0.00 in0.0 mm 0.01 in0.3 mm
11:35 PM 28.4°F-2.0°C 26.1°F-3.3°C 91% 11.0 mph SE17.7 kmh SE 14.0 mph22.5 kmh 29.93 in1013.5 mb 0.00 in0.0 mm 0.00 in0.0 mm 0.01 in0.3 mm
11:40 PM 28.4°F-2.0°C 26.1°F-3.3°C 91% 11.0 mph S17.7 kmh S 15.0 mph24.1 kmh 29.92 in1013.2 mb 0.00 in0.0 mm 0.00 in0.0 mm 0.01 in0.3 mm
11:45 PM 28.4°F-2.0°C 26.1°F-3.3°C 91% 10.0 mph S16.1 kmh S 15.0 mph24.1 kmh 29.92 in1013.2 mb 0.00 in0.0 mm 0.00 in0.0 mm 0.01 in0.3 mm
11:50 PM 28.4°F-2.0°C 26.1°F-3.3°C 91% 10.0 mph SSE16.1 kmh SSE 15.0 mph24.1 kmh 29.92 in1013.2 mb 0.00 in0.0 mm 0.00 in0.0 mm 0.01 in0.3 mm
11:55 PM 28.4°F-2.0°C 26.1°F-3.3°C 91% 3.0 mph S4.8 kmh S 15.0 mph24.1 kmh 29.91 in1012.9 mb 0.00 in0.0 mm 0.00 in0.0 mm 0.01 in0.3 mm